Tavernier, Florida
Current Conditions -  °F | °C
As of 7:58 PM on Monday 20 Oct 2014 (Local Time) from KHST Reporting Station
Clear Clear  
Wind Chill: 73°   Ceiling: Unl
Heat Index: 73°   Visibility: 10mi
Dew Point: 69°   Wind: 9mph
Humidity: 88%   Direction: 80°E
Pressure: 29.96"   Gusts: NA
Location:  25.01°N, 80.51°W
Report Text: KHST 202358Z AUTO 08008KT 10SM CLR 23/21 A2996 RMK AO2 LTG DSNT NE CIG 060 RWY23 SLP149 60052 T02270207 10285 20226 53005
Loading
Personal Weather Stations






























Interactive Weather Map
Tropical Storm Tracking
New forecast layout! Learn more

10-Day Weather Forecast

Advertisements
Track Severe Weather on mobile